Aliaksandr Martynovich

首席球探 - Gomel
3 十二月 2028
星期日
處理

性格

適應力 (5) 野心 (3) 爭議性 (2) 忠誠度 (19) 抗壓 (12) 職業素養 (12) 體育精神 (10) 性情 (6)

個人檔案

執教風格 民主型
教練證照 國家B級
決心 7
人員管理 10
激勵 3
紀律 5
工作滿意度
100%
疲勞度
0%
職務 首席球探
薪資 12.7K 每週
合約 14.03.2029

性能

行為 良好
訓練效果
35%
球員發展
15%
傷病預防
35%
戰術執行
50%

近期事件

参加了招募会议 刚刚
推荐了转会目标 刚刚
参加了招募会议 7天前
推荐了转会目标 7天前
参加了招募会议 7天前
参加了招募会议 14天前
推荐了转会目标 14天前
参加了招募会议 14天前

正在监控

79
球員 俱樂部 狀態 能力 信心 已观察 最后观察 最新投票
José Barreto Quilmes 活跃 106 / 122 40% 1 21.08.2028 -
Denis M. Kovalevich Dinamo Brest 活跃 104 / 98 40% 1 21.08.2028 -
Nahuel Marzochi Colon 谈判中 93 / 107 40% 1 21.08.2028 -
Giuseppe Panico Foggia 活跃 131 / 122 40% 1 16.08.2028 -
Eljon Toci Ospitaletto 活跃 115 / 111 40% 1 16.08.2028 -
Lisandro Cabrera Maipú 活跃 108 / 106 40% 1 16.08.2028 -
Lucas Pedraza Defensores Unidos 活跃 109 / 91 40% 1 15.08.2028 -
Enzo González Defensores 活跃 105 / 106 40% 1 15.08.2028 -
Luca Mazzeo Picerno 活跃 116 / 105 40% 1 15.08.2028 -
Genaro Rossi San Martín SJ 活跃 109 / 101 40% 1 14.08.2028 -
Simone Palombi Alcione Milano 活跃 121 / 100 40% 1 14.08.2028 -
Facundo Lescano Salernitana 活跃 125 / 132 40% 1 14.08.2028 -
Facundo Krüger Temperley 活跃 106 / 121 40% 1 07.08.2028 -
Ibrahim Yahaya Barau 活跃 92 / 106 40% 1 07.08.2028 -
Callum Stead Barnet 活跃 98 / 90 40% 1 07.08.2028 -
Maleace Asamoah Wigan Athletic 活跃 93 / 111 40% 1 24.07.2028 -
Fletcher Boyd Accrington Stanley 活跃 102 / 114 40% 1 24.07.2028 -
Vladislav Yakovlev Volga 活跃 90 / 96 40% 4 13.06.2028 观察
Matty Stevens AFC Wimbledon 活跃 123 / 114 40% 1 13.06.2028 -
Alexandr Saplinov Volga 活跃 96 / 107 40% 3 11.06.2028 观察
Axel Gnapi Dable Fakel 活跃 94 / 99 40% 1 11.06.2028 -
Ilja Safronov Rotor 活跃 105 / 106 40% 8 07.06.2028 -
Nikolay Ischenko Chaika 活跃 86 / 97 40% 1 07.06.2028 -
Nikita Simdyankin KDV Tomsk 活跃 89 / 85 40% 1 06.06.2028 -
Migran Ageyan Ufa 活跃 105 / 93 40% 1 06.06.2028 -
Baba N'Diaye Chaika 活跃 82 / 99 40% 1 05.06.2028 -
Bojan Roganović Torpedo Moscow 活跃 115 / 107 40% 1 24.01.2028 -
Vyacheslav Grulev Nizhniy Novgorod 活跃 124 / 109 40% 1 23.01.2028 -
Đorđe Pantelić Spartak Kostroma 活跃 117 / 101 40% 1 23.01.2028 -
Ignacio Saavedra Sochi 活跃 115 / 122 40% 1 19.01.2028 -
François Kamano Sochi 活跃 127 / 117 40% 3 17.01.2028 -
Magomed Nasibov Pobeda 活跃 84 / 86 40% 1 17.01.2028 -
Artur Murza Volga 活跃 107 / 89 40% 1 10.01.2028 -
Ilja Zhigulev Chernomorets 活跃 99 / 103 40% 1 10.01.2028 -
Nikolay Boyarkin Salyut 活跃 86 / 97 40% 1 07.01.2028 -
Lautaro Núñez Alvarado 活跃 114 / 91 40% 1 06.01.2028 -
Agustín Maidana San Marcos de Arica 活跃 118 / 107 40% 1 24.08.2027 -
Vadim Averkiev Orel 活跃 89 / 89 40% 1 15.06.2027 -
Georgy Natabashvili Chernomorets 活跃 84 / 95 40% 1 15.06.2027 -
Ilja Zhbanov Cobresal 活跃 90 / 94 70% 1 14.06.2027 赞成
Vladislav Zernaev Salyut 活跃 74 / 74 40% 2 12.06.2027 -
Surkhaikhan Abdullaev KAMAZ 活跃 84 / 94 40% 1 12.06.2027 -
Ivan Litvenok Angusht 活跃 62 / 77 40% 1 10.06.2027 -
Dmitry Rebrov Volna 活跃 84 / 80 40% 1 08.06.2027 -
Timur Akmurzin Dinamo Bryansk 活跃 93 / 98 40% 1 07.06.2027 -
Jacobo Alcalde SKA Khabarovsk 活跃 91 / 90 40% 3 05.06.2027 -
Andrey Okladnikov Yenisey 活跃 98 / 83 40% 3 30.05.2027 -
Said Aliev Rotor 活跃 101 / 107 40% 3 30.05.2027 -
Stanislav Biblyk Chaika 活跃 96 / 98 40% 2 25.05.2027 -
Ruslan Apekov Torpedo Moscow 活跃 104 / 105 40% 2 23.05.2027 -
Daniil Agureev Amkar 活跃 88 / 92 40% 2 21.05.2027 -
Giuseppe D'Agostino Giugliano 活跃 112 / 104 40% 1 19.05.2027 -
Kamran Aliev SKA Khabarovsk 活跃 114 / 104 40% 4 18.05.2027 -
Timur Melekestsev Arsenal Tula 活跃 95 / 84 40% 2 17.05.2027 -
Georgy Gongadze Ufa 活跃 109 / 93 40% 1 16.05.2027 -
Alexey Kashtanov Torpedo Moscow 活跃 104 / 101 40% 2 15.05.2027 -
Vladimir Khubulov Dinamo Makhachkala 活跃 106 / 107 40% 1 13.05.2027 -
Ilja Stefanovich Leningradets 活跃 105 / 94 40% 1 10.05.2027 -
Dmitry Lesnikov Volgar 活跃 88 / 88 40% 2 09.05.2027 -
Danil Karpov KAMAZ 活跃 92 / 94 40% 1 07.05.2027 -
Thom van Bergen Groningen 活跃 123 / 133 40% 2 05.05.2027 -
Ekain Orobengoa Real Sociedad 活跃 87 / 97 40% 1 25.04.2027 -
Georgy Melkadze Akhmat Grozny 活跃 115 / 117 40% 4 23.04.2027 -
David Davidyan Rotor 活跃 111 / 102 40% 1 21.04.2027 -
Timur Zhamaletdinov Arsenal Tula 活跃 84 / 83 40% 2 18.04.2027 -
Víctor Guzmán Sporting CP 活跃 103 / 108 40% 3 15.04.2027 -
Evgeny Voronin Volga 活跃 82 / 84 40% 2 14.04.2027 -
Leon Sabua Ural 活跃 92 / 95 40% 1 02.04.2027 -
Rashid Magomedov Neftekhimik 活跃 102 / 98 40% 2 01.04.2027 -
Daniil Kondrakov KDV Tomsk 活跃 100 / 79 40% 1 22.03.2027 -
Martin Sekulić Ural 活跃 122 / 103 40% 2 17.03.2027 -
Paolo Yrizar Chernomorets 活跃 96 / 103 40% 1 11.03.2027 -
Andrey Kren Slutsk 活跃 87 / 81 58% 1 07.09.2026 -
Rauno Sappinen Flora 活跃 115 / 119 40% 1 17.08.2026 -
Matthew Garbett Peterborough United 活跃 99 / 106 40% 1 17.08.2026 -
Jamie Reid Stevenage 活跃 93 / 94 40% 1 03.08.2026 -
Tristan Koskor Tammeka 活跃 84 / 71 40% 1 03.08.2026 -
Henri Perk Nomme Kalju 活跃 86 / 99 40% 1 02.08.2026 -
Adrian Šemper Al-Fateh 活跃 121 / 128 40% 1 02.08.2026 -